createdAt,value
2023-09-29T00:00:51.210Z,14.90
2023-09-29T00:06:53.082Z,14.90
2023-09-29T00:12:54.998Z,15.10
2023-09-29T00:18:57.513Z,15.20
2023-09-29T00:24:59.579Z,15.10
2023-09-29T00:31:01.582Z,15.00
2023-09-29T00:37:04.686Z,15.00
2023-09-29T00:43:06.970Z,14.90
2023-09-29T00:49:09.216Z,14.80
2023-09-29T00:55:14.855Z,14.70
2023-09-29T01:01:16.846Z,14.60
2023-09-29T01:07:19.012Z,14.50
2023-09-29T01:13:21.059Z,14.50
2023-09-29T01:19:23.087Z,14.50
2023-09-29T01:25:25.098Z,14.50
2023-09-29T01:31:26.958Z,14.40
2023-09-29T01:37:29.364Z,14.40
2023-09-29T01:43:32.462Z,14.30
2023-09-29T01:49:34.434Z,14.30
2023-09-29T01:55:36.359Z,14.20
2023-09-29T02:01:38.213Z,14.10
2023-09-29T02:07:40.946Z,14.00
2023-09-29T02:13:42.811Z,14.00
2023-09-29T02:19:44.634Z,14.00
2023-09-29T02:25:46.515Z,14.00
2023-09-29T02:31:48.341Z,14.00
2023-09-29T02:37:50.240Z,14.00
2023-09-29T02:43:52.071Z,14.00
2023-09-29T02:49:53.872Z,14.20
2023-09-29T02:55:55.659Z,14.10
2023-09-29T03:01:57.521Z,14.20
2023-09-29T03:07:59.793Z,14.20
2023-09-29T03:14:01.671Z,14.10
2023-09-29T03:20:09.764Z,14.20
2023-09-29T03:26:16.195Z,14.30
2023-09-29T03:32:18.484Z,14.40
2023-09-29T03:38:21.798Z,14.50
2023-09-29T03:44:24.299Z,14.60
2023-09-29T03:50:26.178Z,14.50
2023-09-29T03:56:28.144Z,14.50
2023-09-29T04:02:32.666Z,14.60
2023-09-29T04:08:34.635Z,14.60
2023-09-29T04:14:36.486Z,14.60
2023-09-29T04:20:38.446Z,14.70
2023-09-29T04:26:40.388Z,14.70
2023-09-29T04:32:42.474Z,14.80
2023-09-29T04:38:44.650Z,14.90
2023-09-29T04:44:46.630Z,15.00
2023-09-29T04:50:48.591Z,15.00
2023-09-29T04:56:50.452Z,15.10
2023-09-29T05:02:52.359Z,15.20
2023-09-29T05:08:54.338Z,15.30
2023-09-29T05:14:56.479Z,15.40
2023-09-29T05:20:58.386Z,15.40
2023-09-29T05:27:00.464Z,15.50
2023-09-29T05:33:02.598Z,15.80
2023-09-29T05:39:05.322Z,16.00
2023-09-29T05:45:08.204Z,16.20
2023-09-29T05:51:10.072Z,16.40
2023-09-29T05:57:11.978Z,16.50
2023-09-29T06:03:13.890Z,16.60
2023-09-29T06:09:15.912Z,16.80
2023-09-29T06:15:17.834Z,17.10
2023-09-29T06:21:19.718Z,17.20
2023-09-29T06:27:21.722Z,17.30
2023-09-29T06:33:27.046Z,17.40
2023-09-29T06:39:29.458Z,17.50
2023-09-29T06:45:51.757Z,17.50
2023-09-29T06:51:54.887Z,17.70
2023-09-29T06:57:56.804Z,17.70
2023-09-29T07:03:59.477Z,17.80
2023-09-29T07:10:02.491Z,17.90
2023-09-29T07:16:04.695Z,18.00
2023-09-29T07:22:06.566Z,18.10
2023-09-29T07:28:14.692Z,18.10
2023-09-29T07:34:16.894Z,18.10
2023-09-29T07:40:18.890Z,18.30
2023-09-29T07:46:20.873Z,18.50
2023-09-29T07:52:28.978Z,18.60
2023-09-29T07:58:30.939Z,18.70
2023-09-29T08:04:32.872Z,18.80
2023-09-29T08:10:35.021Z,19.00
2023-09-29T08:16:38.163Z,19.10
2023-09-29T08:22:41.794Z,19.20
2023-09-29T08:28:45.167Z,19.30
2023-09-29T08:34:47.105Z,19.30
2023-09-29T08:40:53.264Z,19.30
2023-09-29T08:47:02.687Z,19.30
2023-09-29T08:53:06.380Z,19.40
2023-09-29T08:59:08.260Z,19.60
2023-09-29T09:05:15.911Z,19.60
2023-09-29T09:11:17.700Z,19.80
2023-09-29T09:17:20.020Z,19.90
2023-09-29T09:23:22.257Z,20.10
2023-09-29T09:29:24.395Z,20.50
2023-09-29T09:35:28.127Z,20.60
2023-09-29T09:41:30.078Z,20.70
2023-09-29T09:47:32.200Z,20.50
2023-09-29T09:53:37.903Z,20.60
2023-09-29T09:59:43.113Z,20.80
2023-09-29T10:05:54.465Z,21.00
2023-09-29T10:12:00.772Z,21.60
2023-09-29T10:18:19.182Z,22.10
2023-09-29T10:24:30.792Z,22.20
2023-09-29T10:30:32.681Z,22.40
2023-09-29T10:36:34.533Z,22.30
2023-09-29T10:42:39.454Z,22.50
2023-09-29T10:48:49.732Z,22.60
2023-09-29T10:54:58.027Z,22.60
2023-09-29T11:01:00.078Z,22.70
2023-09-29T11:07:04.063Z,23.00
2023-09-29T11:13:16.518Z,23.30
2023-09-29T11:19:18.525Z,23.60
2023-09-29T11:25:21.184Z,23.80
2023-09-29T11:31:23.130Z,24.10
2023-09-29T11:37:24.981Z,24.30
2023-09-29T11:43:27.259Z,24.60
2023-09-29T11:49:29.114Z,24.70
2023-09-29T11:55:31.451Z,24.60
2023-09-29T12:01:33.279Z,24.50
2023-09-29T12:07:36.683Z,24.50
2023-09-29T12:13:40.673Z,24.60
2023-09-29T12:19:42.436Z,25.10
2023-09-29T12:25:44.256Z,25.10
2023-09-29T12:31:46.355Z,24.90
2023-09-29T12:37:48.300Z,24.90
2023-09-29T12:43:50.132Z,25.30
2023-09-29T12:49:51.945Z,25.20
2023-09-29T12:55:54.070Z,25.20
2023-09-29T13:01:55.935Z,25.10
2023-09-29T13:07:57.758Z,25.50
2023-09-29T13:13:59.569Z,25.80
2023-09-29T13:20:01.670Z,25.40
2023-09-29T13:26:03.565Z,25.30
2023-09-29T13:32:05.416Z,25.20
2023-09-29T13:38:07.853Z,25.30
2023-09-29T13:44:09.963Z,25.40
2023-09-29T13:50:12.495Z,25.30
2023-09-29T13:56:14.826Z,25.30
2023-09-29T14:02:17.101Z,25.30
2023-09-29T14:08:20.368Z,25.10
2023-09-29T14:14:22.536Z,25.10
2023-09-29T14:20:26.532Z,25.20
2023-09-29T14:26:28.663Z,25.00
2023-09-29T14:32:30.561Z,24.70
2023-09-29T14:38:33.712Z,24.60
2023-09-29T14:44:35.685Z,24.50
2023-09-29T14:50:40.301Z,24.50
2023-09-29T14:56:42.132Z,24.40
2023-09-29T15:02:44.267Z,24.40
2023-09-29T15:08:46.566Z,24.20
2023-09-29T15:14:48.470Z,24.10
2023-09-29T15:20:51.901Z,23.90
2023-09-29T15:26:54.925Z,23.40
2023-09-29T15:32:56.930Z,23.00
2023-09-29T15:38:58.899Z,22.50
2023-09-29T15:45:00.906Z,22.20
2023-09-29T15:51:02.864Z,22.00
2023-09-29T15:57:04.893Z,21.80
2023-09-29T16:03:07.764Z,21.70
2023-09-29T16:09:10.449Z,21.70
2023-09-29T16:15:12.446Z,21.60
2023-09-29T16:21:19.496Z,21.50
2023-09-29T16:27:22.969Z,21.30
2023-09-29T16:33:27.143Z,21.10
2023-09-29T16:39:30.744Z,20.80
2023-09-29T16:45:32.740Z,20.50
2023-09-29T16:51:35.372Z,20.30
2023-09-29T16:57:37.414Z,19.90
2023-09-29T17:03:39.420Z,19.60
2023-09-29T17:09:41.327Z,19.40
2023-09-29T17:15:43.379Z,19.30
2023-09-29T17:21:45.284Z,19.40
2023-09-29T17:27:48.640Z,19.40
2023-09-29T17:33:50.614Z,19.30
2023-09-29T17:39:53.517Z,19.30
2023-09-29T17:46:00.777Z,19.30
2023-09-29T17:52:02.674Z,19.40
2023-09-29T17:58:04.695Z,19.50
2023-09-29T18:04:06.790Z,19.50
2023-09-29T18:10:09.578Z,19.60
2023-09-29T18:16:12.205Z,19.70
2023-09-29T18:22:14.242Z,19.90
2023-09-29T18:28:16.026Z,20.00
2023-09-29T18:34:17.858Z,19.80
2023-09-29T18:40:19.678Z,19.50
2023-09-29T18:46:21.635Z,19.30
2023-09-29T18:52:23.565Z,19.10
2023-09-29T18:58:25.559Z,18.80
2023-09-29T19:04:28.053Z,18.70
2023-09-29T19:10:29.904Z,18.60
2023-09-29T19:16:31.962Z,18.50
2023-09-29T19:22:33.862Z,18.30
2023-09-29T19:28:35.776Z,18.10
2023-09-29T19:34:37.673Z,17.90
2023-09-29T19:40:42.748Z,17.80
2023-09-29T19:46:44.715Z,17.70
2023-09-29T19:52:48.368Z,17.70
2023-09-29T19:58:53.780Z,17.50
2023-09-29T20:04:55.694Z,17.40
2023-09-29T20:10:57.780Z,17.30
2023-09-29T20:16:59.890Z,17.00
2023-09-29T20:23:03.562Z,16.90
2023-09-29T20:29:05.635Z,16.90
2023-09-29T20:35:08.172Z,17.00
2023-09-29T20:41:10.893Z,16.80
2023-09-29T20:47:13.079Z,16.70
2023-09-29T20:53:16.452Z,16.60
2023-09-29T20:59:18.546Z,16.60
2023-09-29T21:05:20.877Z,16.50
2023-09-29T21:11:22.946Z,16.50
2023-09-29T21:17:24.792Z,16.40
2023-09-29T21:23:26.653Z,16.40
2023-09-29T21:29:28.462Z,16.30
2023-09-29T21:35:30.572Z,16.10
2023-09-29T21:41:32.428Z,16.10
2023-09-29T21:47:34.438Z,16.00
2023-09-29T21:53:36.360Z,15.90
2023-09-29T21:59:38.188Z,15.50
2023-09-29T22:05:40.834Z,15.30
2023-09-29T22:11:42.730Z,15.00
2023-09-29T22:17:45.249Z,14.90
2023-09-29T22:23:48.001Z,14.70
2023-09-29T22:29:49.887Z,14.60
2023-09-29T22:35:51.800Z,14.40
2023-09-29T22:41:53.975Z,14.20
2023-09-29T22:47:55.991Z,14.20
2023-09-29T22:53:58.494Z,14.20
2023-09-29T23:00:02.153Z,14.20
2023-09-29T23:06:04.391Z,14.10
2023-09-29T23:12:06.577Z,14.10
2023-09-29T23:18:11.388Z,13.90
2023-09-29T23:24:13.304Z,13.80
2023-09-29T23:30:15.421Z,13.70
2023-09-29T23:36:20.792Z,13.60
2023-09-29T23:42:22.893Z,13.60
2023-09-29T23:48:25.295Z,13.60
2023-09-29T23:54:27.796Z,13.70
